Airfield :
LOGIN :

Register | Disclaimer

   EN    FR    IT 

 










Legend :    VFR   Marginal VFR   IFR   Intensive IFR   Very Intensive IFR
Visi :
Ceiling :
>= 8 km
>= 3000ft
5 to 8 km
1000 to 3000 ft
1500m to 5 km
500 to 1000 ft
800 to 1500m
200 to 500 ft
< 800m
< 200 ft
Symbols :   Thunderstorms  Fog  Heavy snow  Heavy precipitations  Wind > 20 kt
SIGMETs :     Misc.  Thunderstorms  Icing  Turbulence  Mountain Waves  Volcanic Ashes







- Airport Elevation : 580 ft
- Download approach charts


LFOA - Avord

CURRENT METAR :
  • 190630Z AUTO 20002KT 9999 FEW022 OVC028 07/05 Q1021 TEMPO 3000 -DZ BR BKN012

EXPIRED METARs :
  • 190600Z AUTO 21002KT 9999 OVC022 06/05 Q1021 TEMPO 3000 -DZ BR BKN012
  • 190530Z AUTO 21002KT 9999 BKN023 OVC062 06/05 Q1021 TEMPO 3000 -DZ BR BKN012
  • 190500Z AUTO 16001KT 9999 BKN019 OVC028 06/05 Q1021 TEMPO 3000 -DZ BR BKN012
  • 190430Z AUTO 00000KT 9999 BKN018 BKN023 OVC030 06/05 Q1021
  • 190400Z AUTO VRB02KT 9999 BKN022 BKN029 OVC120 06/05 Q1021

TAF AMD TAF LFOA
Valid from the 19 at 04:00 until the 20 at 03:00 UTC


190455Z 1904/2003 22005KT 9999 BKN020
PROB40
TEMPO 1906/1910 3000 -DZ BR BKN012
BECMG 1922/1924 3000 BR
PROB40 2001/2003 0800 FG
No reported NOTAMs for that airfield.
1 SIGMET reported for the Paris FIR (LFFF) :
 
Severe turbulence
LFFF SIGMET 1 VALID 190410/190800 LFPW
LFFF PARIS FIR/UIR SEV TURB FCST WI N4730 W00015 - N4830 W00015 - N5030 E00215 - N4930 E00245 - N4730 W00015 FL180/280 MOV SE 10KT NC=



MET'MAP, your aeronautical weather chart ! - Copyright ORBIFLY December 2007 - Disclaimer

ORBIFLY MET'MAP TEAM :

Programming & Development : Alexandra Zaïnal
Concept & Development : Baudouin d'Aumeries
Co-Development & Prog : Marc-Olivier Méhu
Technical & hardware support : Manuel Goepfert

Contact : metmap@orbifly.com




SOURCES & CREDITS :

   NOAA